Maersk Danang — A8PS5 — position and weather

sailwx.info

Track history (hours):
 
Tides and Currents Weather Stations Pressure Air Temp Water Temp Dewpoint Dewpoint Depression Visibility Wind Speed Wind Dir Waves Ship Positions

Maersk Danang

Last reported at 2016-Feb-06 03:26 UTC. Time now 2016-Feb-06 15:40 UTC.
Position N 34°03' E 130°49'.

Length 293 m; draft 8.3 m.

Type: Ship (hazmat cat A). MMSI: 636091595.

Date/timePositionNaut miles runAvg speedWind from/ knotsBaromVisibWave heightAir tempDewpointWater temp
2016-Feb-06 03:26N 34°03' E 130°49'43413.1
2016-Feb-04 18:23N 34°60' E 139°31'1416.8
2016-Feb-04 17:33N 35°08' E 139°44'1212.5
2016-Feb-04 16:34N 35°20' E 139°42'4 3.7
2016-Feb-04 15:32N 35°24' E 139°41'0 0.0
2016-Feb-04 14:32N 35°24' E 139°41'1 0.8
2016-Feb-04 13:33N 35°23' E 139°41'9 9.5
2016-Feb-04 12:34N 35°15' E 139°47'1211.8
2016-Feb-04 11:33N 35°03' E 139°45'1512.8
2016-Feb-04 10:23N 34°52' E 139°56'1416.3
2016-Feb-04 09:33N 34°58' E 140°11'1616.4
2016-Feb-04 08:33N 35°07' E 140°27'1616.0
2016-Feb-04 07:33N 35°17' E 140°42'1615.8
2016-Feb-04 06:33N 35°31' E 140°53'1615.5
2016-Feb-04 05:33N 35°43' E 141°05'66215.9
2016-Feb-02 12:00N 43°54' E 150°42'43216.0 270 / 161011.010.8 -3.0
2016-Feb-01 09:00N 48°30' E 158°42'20016.7 300 / 21996.0 5.4 2.0-2.0 1.0
2016-Jan-31 21:00N 50°30' E 162°48'70818.1 290 / 15994.0 2.2 1.0 1.0 -1.0
2016-Jan-30 06:00N 54°18' W 178°54'31913.3 140 / 20980.0 5.4 5.0 3.0
2016-Jan-29 06:00N 54°18' W 169°48'345 7.2 280 / 18983.0 5.4 5.0 3.0
2016-Jan-27 06:00N 54°00' W 160°00'   050 / 20972.010.8 4.0 5.0
Track history (hours):
 
Tides and Currents Weather Stations Pressure Air Temp Water Temp Dewpoint Dewpoint Depression Visibility Wind Speed Wind Dir Waves Ship Positions

Maersk Danang

Last reported at 2016-Feb-06 03:26 UTC. Time now 2016-Feb-06 15:40 UTC.
Position N 34°03' E 130°49'.

Length 293 m; draft 8.3 m.

Type: Ship (hazmat cat A). MMSI: 636091595.

Date/timePositionNaut miles runAvg speedWind from/ knotsBaromVisibWave heightAir tempDewpointWater temp
2016-Feb-06 03:26N 34°03' E 130°49'43413.1
2016-Feb-04 18:23N 34°60' E 139°31'1416.8
2016-Feb-04 17:33N 35°08' E 139°44'1212.5
2016-Feb-04 16:34N 35°20' E 139°42'4 3.7
2016-Feb-04 15:32N 35°24' E 139°41'0 0.0
2016-Feb-04 14:32N 35°24' E 139°41'1 0.8
2016-Feb-04 13:33N 35°23' E 139°41'9 9.5
2016-Feb-04 12:34N 35°15' E 139°47'1211.8
2016-Feb-04 11:33N 35°03' E 139°45'1512.8
2016-Feb-04 10:23N 34°52' E 139°56'1416.3
2016-Feb-04 09:33N 34°58' E 140°11'1616.4
2016-Feb-04 08:33N 35°07' E 140°27'1616.0
2016-Feb-04 07:33N 35°17' E 140°42'1615.8
2016-Feb-04 06:33N 35°31' E 140°53'1615.5
2016-Feb-04 05:33N 35°43' E 141°05'66215.9
2016-Feb-02 12:00N 43°54' E 150°42'43216.0 270 / 161011.010.8 -3.0
2016-Feb-01 09:00N 48°30' E 158°42'20016.7 300 / 21996.0 5.4 2.0-2.0 1.0
2016-Jan-31 21:00N 50°30' E 162°48'70818.1 290 / 15994.0 2.2 1.0 1.0 -1.0
2016-Jan-30 06:00N 54°18' W 178°54'31913.3 140 / 20980.0 5.4 5.0 3.0
2016-Jan-29 06:00N 54°18' W 169°48'345 7.2 280 / 18983.0 5.4 5.0 3.0
2016-Jan-27 06:00N 54°00' W 160°00'   050 / 20972.010.8 4.0 5.0

Dump ship's entire track history